Time;durP1;ratioP1;P1;durP2;ratioP2;P2;SDS_P1;SDS_P2;PMS_P1;PMS_P2;Temp;Humidity;BMP_temperature;BMP_pressure;BME280_temperature;BME280_humidity;BME280_pressure;Samples;Min_cycle;Max_cycle;Signal;HPM_P1;HPM_P2
2024/02/14 00:05:35;;;;;;;;;;;;;;;4.97;84.02;100734.98;1758865;81;25355;-48
2024/02/14 00:08:04;;;;;;;19.00;9.90;;;;;;;4.97;84.22;100743.02;1756229;81;25505;-48
2024/02/14 00:10:31;;;;;;;20.50;11.18;;;;;;;4.94;84.15;100741.69;1756366;81;25210;-50
2024/02/14 00:12:58;;;;;;;24.00;11.70;;;;;;;4.93;84.29;100736.04;1755914;81;27227;-54
2024/02/14 00:15:26;;;;;;;27.25;15.03;;;;;;;4.92;84.29;100743.00;1755030;81;25696;-56
2024/02/14 00:17:53;;;;;;;26.12;13.95;;;;;;;4.91;84.27;100745.42;1755186;81;25788;-53
2024/02/14 00:20:20;;;;;;;19.75;11.10;;;;;;;4.89;84.33;100748.87;1755118;81;25701;-55
2024/02/14 00:22:46;;;;;;;17.57;9.60;;;;;;;4.84;84.50;100747.78;1754424;81;25799;-52
2024/02/14 00:25:14;;;;;;;17.15;8.70;;;;;;;4.85;84.28;100748.58;1724873;83;27613;-52
2024/02/14 00:27:40;;;;;;;17.02;8.75;;;;;;;4.83;84.21;100748.05;1754765;81;25962;-54
2024/02/14 00:30:10;;;;;;;18.67;8.98;;;;;;;4.83;84.25;100755.55;1755481;81;25634;-51
2024/02/14 00:32:37;;;;;;;18.73;9.75;;;;;;;4.81;84.26;100749.64;1756865;81;25577;-54
2024/02/14 00:35:06;;;;;;;17.48;9.40;;;;;;;4.84;84.33;100755.83;1756321;81;25652;-51
2024/02/14 00:37:33;;;;;;;17.80;9.78;;;;;;;4.84;84.44;100761.19;1756404;81;27317;-54
2024/02/14 00:40:01;;;;;;;21.15;9.15;;;;;;;4.83;84.60;100758.22;1756188;81;25392;-53
2024/02/14 00:42:29;;;;;;;20.70;10.68;;;;;;;4.82;84.48;100763.33;1756542;81;25576;-52
2024/02/14 00:44:55;;;;;;;24.82;15.45;;;;;;;4.82;84.45;100762.53;1756237;81;25657;-53
2024/02/14 00:47:22;;;;;;;24.43;14.98;;;;;;;4.80;84.42;100760.62;1756296;81;25569;-53
2024/02/14 00:49:49;;;;;;;23.45;14.40;;;;;;;4.78;84.54;100758.73;1756223;81;27229;-54
2024/02/14 00:52:17;;;;;;;22.22;10.40;;;;;;;4.76;84.50;100763.01;1756181;81;25577;-51
2024/02/14 00:54:44;;;;;;;19.95;10.10;;;;;;;4.76;84.70;100764.89;1756264;81;25460;-53
2024/02/14 00:57:11;;;;;;;22.13;11.15;;;;;;;4.77;84.58;100769.20;1756207;81;26317;-52
2024/02/14 00:59:38;;;;;;;25.82;11.85;;;;;;;4.76;84.59;100767.57;1759256;81;25645;-51
2024/02/14 01:02:07;;;;;;;19.15;10.20;;;;;;;4.77;84.76;100766.52;1726179;83;27671;-54
2024/02/14 01:04:36;;;;;;;19.70;9.03;;;;;;;4.76;84.66;100766.23;1756190;81;25634;-51
2024/02/14 01:07:05;;;;;;;27.15;12.20;;;;;;;4.74;84.61;100761.67;1756488;81;25431;-51
2024/02/14 01:09:33;;;;;;;18.48;10.30;;;;;;;4.73;84.44;100758.70;1756229;81;25975;-53
2024/02/14 01:12:02;;;;;;;22.40;12.65;;;;;;;4.71;84.40;100756.28;1756252;81;25559;-54
2024/02/14 01:14:30;;;;;;;19.48;11.78;;;;;;;4.70;84.46;100757.36;1755986;81;27528;-54
2024/02/14 01:16:58;;;;;;;20.90;9.33;;;;;;;4.68;84.56;100762.14;1756152;81;25975;-52
2024/02/14 01:19:28;;;;;;;20.40;10.15;;;;;;;4.66;84.38;100764.28;1756254;81;25562;-55
2024/02/14 01:21:57;;;;;;;17.32;9.43;;;;;;;4.63;84.47;100768.30;1756341;81;25951;-53
2024/02/14 01:24:30;;;;;;;19.52;11.22;;;;;;;4.62;84.46;100771.23;1726331;83;25339;-52
2024/02/14 01:26:55;;;;;;;32.35;18.48;;;;;;;4.58;84.53;100764.25;1754694;81;27902;-55
2024/02/14 01:29:23;;;;;;;22.45;11.15;;;;;;;4.58;84.57;100771.45;1759247;81;25730;-51
2024/02/14 01:31:51;;;;;;;16.65;8.65;;;;;;;4.55;84.19;100773.33;1726103;83;25566;-53
2024/02/14 01:34:19;;;;;;;;;;;;;;;4.52;84.18;100771.16;1758747;81;25455;-54
2024/02/14 01:36:49;;;;;;;15.30;7.83;;;;;;;4.45;84.02;100769.50;1726459;81;25627;-52
2024/02/14 01:39:17;;;;;;;14.38;8.28;;;;;;;4.40;84.12;100773.47;1726146;83;27374;-52
2024/02/14 01:41:50;;;;;;;16.12;9.83;;;;;;;4.34;84.13;100765.65;1756255;81;25621;-51
2024/02/14 01:44:18;;;;;;;16.97;8.40;;;;;;;4.27;84.18;100762.67;1756252;81;25577;-52
2024/02/14 01:46:46;;;;;;;17.75;7.47;;;;;;;4.21;83.90;100769.03;1756215;81;25460;-52
2024/02/14 01:49:16;;;;;;;21.62;8.40;;;;;;;4.15;83.81;100771.38;1756224;81;25392;-52
2024/02/14 01:51:46;;;;;;;17.37;7.87;;;;;;;4.05;83.67;100770.77;1756246;81;27324;-53
2024/02/14 01:54:17;;;;;;;14.13;7.83;;;;;;;4.00;83.60;100767.22;1756189;81;25601;-52
2024/02/14 01:56:46;;;;;;;22.13;8.55;;;;;;;3.95;84.05;100773.86;1756256;81;25593;-52
2024/02/14 01:59:16;;;;;;;23.18;8.88;;;;;;;3.87;83.75;100771.12;1756177;81;25483;-52
2024/02/14 02:01:43;;;;;;;17.15;8.93;;;;;;;3.82;84.25;100773.75;1756389;81;25395;-54
2024/02/14 02:04:11;;;;;;;18.05;8.88;;;;;;;3.78;84.52;100779.31;1756192;81;27932;-54
2024/02/14 02:06:41;;;;;;;16.37;9.05;;;;;;;3.72;84.62;100775.78;1756110;81;25604;-51
2024/02/14 02:09:09;;;;;;;19.82;8.53;;;;;;;3.69;85.04;100779.75;1756193;81;25597;-52
2024/02/14 02:11:56;;;;;;;17.73;8.20;;;;;;;3.65;85.25;100774.64;1756251;81;26023;-52
2024/02/14 02:14:26;;;;;;;17.23;9.08;;;;;;;3.62;85.24;100776.47;1755539;81;25373;-53
2024/02/14 02:16:53;;;;;;;18.90;8.88;;;;;;;3.58;85.27;100775.36;1756072;81;27216;-52
2024/02/14 02:19:21;;;;;;;20.10;9.48;;;;;;;3.54;85.20;100783.08;1756251;81;25730;-51
2024/02/14 02:21:48;;;;;;;20.90;10.20;;;;;;;3.50;84.92;100786.50;1756188;81;25429;-51
2024/02/14 02:24:15;;;;;;;23.55;10.20;;;;;;;3.48;84.89;100791.30;1756158;81;25451;-54
2024/02/14 02:26:43;;;;;;;22.50;10.78;;;;;;;3.43;85.13;100798.72;1756202;81;25669;-52
2024/02/14 02:29:12;;;;;;;19.37;8.63;;;;;;;3.42;85.50;100793.62;1756322;81;28224;-52
2024/02/14 02:31:39;;;;;;;21.82;10.08;;;;;;;3.36;85.62;100792.22;1725943;83;25603;-52
2024/02/14 02:34:05;;;;;;;20.68;9.58;;;;;;;3.34;85.71;100798.88;1756191;81;25558;-54
2024/02/14 02:36:34;;;;;;;17.40;8.75;;;;;;;3.31;85.55;100802.05;1756141;81;25500;-53
2024/02/14 02:39:02;;;;;;;20.32;8.60;;;;;;;3.27;85.30;100805.75;1756243;81;25549;-51
2024/02/14 02:41:28;;;;;;;19.02;9.43;;;;;;;3.24;85.70;100802.22;1756215;81;28298;-52
2024/02/14 02:43:56;;;;;;;18.80;9.10;;;;;;;3.24;86.10;100808.11;1756106;81;25586;-52
2024/02/14 02:46:23;;;;;;;16.20;8.73;;;;;;;3.22;86.09;100805.68;1756199;81;25550;-51
2024/02/14 02:48:58;;;;;;;17.77;9.15;;;;;;;3.20;86.05;100799.75;1756282;81;25628;-52
2024/02/14 02:51:27;;;;;;;19.73;9.58;;;;;;;3.18;86.27;100796.52;1756318;81;25570;-51
2024/02/14 02:53:57;;;;;;;18.02;9.38;;;;;;;3.13;86.39;100802.63;1756218;81;27748;-53
2024/02/14 03:54:25;;;;;;;22.30;11.25;;;;;;;2.65;91.16;100837.97;1776992;80;25428;-52
2024/02/14 03:56:52;;;;;;;19.35;10.55;;;;;;;2.68;91.29;100836.16;1780467;80;25909;-54
2024/02/14 03:59:24;;;;;;;21.75;11.00;;;;;;;2.70;91.24;100842.05;1780544;80;25408;-51
2024/02/14 04:01:47;;;;;;;23.25;11.97;;;;;;;2.70;91.51;100841.52;1780032;80;28113;-51
2024/02/14 04:04:13;;;;;;;18.67;10.88;;;;;;;2.72;91.51;100848.76;1780405;80;25464;-51
2024/02/14 04:06:40;;;;;;;25.17;11.83;;;;;;;2.74;91.69;100848.02;1780490;80;25606;-53
2024/02/14 04:09:08;;;;;;;21.37;11.55;;;;;;;2.77;91.84;100851.52;1780455;80;26079;-52
2024/02/14 04:11:36;;;;;;;21.02;11.18;;;;;;;2.79;91.86;100855.28;1780518;80;25636;-52
2024/02/14 04:14:04;;;;;;;22.13;10.40;;;;;;;2.79;91.83;100852.61;1780542;80;26641;-54
2024/02/14 04:16:31;;;;;;;22.32;11.90;;;;;;;2.80;91.92;100848.89;1780389;80;25611;-52
2024/02/14 04:18:58;;;;;;;20.50;11.53;;;;;;;2.82;91.99;100854.00;1780442;80;25395;-52
2024/02/14 04:21:26;;;;;;;20.30;11.75;;;;;;;2.83;91.89;100856.43;1780448;80;25595;-54
2024/02/14 04:23:52;;;;;;;22.37;11.85;;;;;;;2.85;92.01;100852.19;1780546;80;25618;-52
2024/02/14 04:26:23;;;;;;;22.90;11.33;;;;;;;2.84;92.24;100850.02;1780483;80;27916;-52
2024/02/14 04:28:51;;;;;;;18.57;10.18;;;;;;;2.84;92.36;100850.02;1780529;80;25546;-52
2024/02/14 04:31:18;;;;;;;19.17;11.95;;;;;;;2.84;92.00;100849.22;1780451;80;25392;-52
2024/02/14 04:33:46;;;;;;;24.18;12.20;;;;;;;2.85;91.87;100849.51;1780420;80;25429;-53
2024/02/14 04:36:12;;;;;;;20.62;12.47;;;;;;;2.86;92.14;100855.95;1780209;80;25400;-53
2024/02/14 04:38:38;;;;;;;23.32;12.60;;;;;;;2.83;92.10;100857.77;1780436;80;27343;-51
2024/02/14 04:41:05;;;;;;;20.32;11.55;;;;;;;2.83;92.15;100858.27;1780398;80;25579;-52
2024/02/14 04:43:31;;;;;;;23.85;12.60;;;;;;;2.78;92.23;100862.50;1780447;80;25407;-52
2024/02/14 04:45:58;;;;;;;23.27;12.07;;;;;;;2.76;91.94;100865.94;1780512;80;25558;-51
2024/02/14 04:48:26;;;;;;;25.15;13.00;;;;;;;2.74;91.93;100864.55;1780491;80;25646;-52
2024/02/14 04:50:54;;;;;;;23.92;12.18;;;;;;;2.73;91.92;100866.95;1780429;80;27322;-53
2024/02/14 04:53:21;;;;;;;24.70;13.03;;;;;;;2.71;91.95;100866.39;1758825;80;25637;-51
2024/02/14 04:55:48;;;;;;;25.30;11.97;;;;;;;2.69;91.77;100864.47;1780458;80;25625;-52
2024/02/14 04:58:15;;;;;;;27.50;13.38;;;;;;;2.64;91.95;100867.88;1780453;80;25304;-51
2024/02/14 05:00:43;;;;;;;26.50;13.48;;;;;;;2.61;91.89;100873.17;1780607;80;25431;-55
2024/02/14 05:03:09;;;;;;;24.05;14.07;;;;;;;2.56;91.91;100874.95;1780411;80;27329;-55
2024/02/14 05:05:37;;;;;;;24.75;13.78;;;;;;;2.51;92.06;100870.86;1780382;80;26036;-53
2024/02/14 05:08:07;;;;;;;27.13;14.28;;;;;;;2.47;92.16;100873.20;1780462;80;25534;-50
2024/02/14 05:10:33;;;;;;;28.30;14.60;;;;;;;2.45;92.45;100885.16;1780379;80;25451;-51
2024/02/14 05:13:01;;;;;;;29.87;15.28;;;;;;;2.40;92.55;100891.21;1780470;80;25383;-52
2024/02/14 05:15:28;;;;;;;26.42;15.48;;;;;;;2.37;92.64;100890.38;1780480;80;27321;-53
2024/02/14 05:17:56;;;;;;;27.65;14.60;;;;;;;2.35;92.71;100891.12;1780342;80;25987;-54
2024/02/14 05:20:23;;;;;;;31.42;15.32;;;;;;;2.31;92.88;100886.78;1780416;80;25447;-54
2024/02/14 05:30:48;;;;;;;23.95;13.48;;;;;;;2.16;92.41;100893.17;1780471;80;25530;-52
2024/02/14 05:33:15;;;;;;;26.57;14.90;;;;;;;2.06;92.85;100897.81;1780341;80;25518;-52
2024/02/14 05:35:44;;;;;;;30.27;13.93;;;;;;;2.04;92.90;100897.22;1780424;80;25190;-53
2024/02/14 05:38:11;;;;;;;26.68;14.00;;;;;;;1.96;92.72;100889.08;1780396;80;25634;-50
2024/02/14 05:40:43;;;;;;;25.60;13.55;;;;;;;1.92;92.22;100897.78;1784830;80;25450;-51
2024/02/14 05:43:12;;;;;;;30.50;14.23;;;;;;;1.85;92.36;100897.91;1780438;80;28089;-54
2024/02/14 05:45:39;;;;;;;27.40;14.47;;;;;;;1.81;92.67;100898.91;1780353;80;25597;-55
2024/02/14 05:48:09;;;;;;;27.13;14.73;;;;;;;1.77;92.85;100899.11;1780410;80;25423;-52
2024/02/14 05:50:36;;;;;;;29.87;15.50;;;;;;;1.74;93.18;100900.91;1780418;80;26026;-52
2024/02/14 05:53:04;;;;;;;29.77;14.85;;;;;;;1.73;93.46;100905.14;1780434;80;25493;-52
2024/02/14 05:55:55;;;;;;;31.12;14.65;;;;;;;1.72;93.72;100907.00;1780145;80;27318;-52
2024/02/14 05:58:23;;;;;;;29.98;14.40;;;;;;;1.71;93.99;100904.56;1780462;80;25578;-52
2024/02/14 06:00:51;;;;;;;34.15;16.00;;;;;;;1.69;94.04;100904.80;1780510;80;25705;-52
2024/02/14 06:03:19;;;;;;;27.77;14.00;;;;;;;1.67;94.03;100913.56;1780385;80;25644;-53
2024/02/14 06:05:49;;;;;;;32.08;14.90;;;;;;;1.62;93.99;100911.59;1780540;80;25588;-55
2024/02/14 06:08:17;;;;;;;33.03;15.33;;;;;;;1.60;94.08;100914.19;1780174;80;27681;-53
2024/02/14 06:10:45;;;;;;;32.70;14.95;;;;;;;1.61;94.37;100911.29;1780033;80;25991;-55
2024/02/14 06:13:13;;;;;;;35.20;17.00;;;;;;;1.59;94.35;100912.58;1780383;80;25563;-52
2024/02/14 06:15:42;;;;;;;28.70;17.12;;;;;;;1.55;94.31;100910.91;1780069;80;25998;-53
2024/02/14 06:21:09;;;;;;;35.75;18.35;;;;;;;1.56;94.74;100923.71;1498379;95;26268;-53
2024/02/14 06:23:37;;;;;;;33.25;17.73;;;;;;;1.54;95.12;100920.47;1569464;90;26807;-53
2024/02/14 06:26:06;;;;;;;33.25;17.73;;;;;;;1.54;95.33;100929.27;1540221;92;25596;-52
2024/02/14 06:28:32;;;;;;;30.00;17.60;;;;;;;1.57;95.56;100930.67;1569881;91;26104;-55
2024/02/14 06:31:00;;;;;;;34.23;18.07;;;;;;;1.60;95.89;100935.52;1569161;90;25743;-53
2024/02/14 06:33:27;;;;;;;31.62;18.20;;;;;;;1.65;96.08;100938.30;1540533;92;28412;-53
2024/02/14 06:35:53;;;;;;;30.30;18.15;;;;;;;1.68;96.25;100933.30;1569592;90;25927;-51
2024/02/14 06:38:20;;;;;;;35.23;17.98;;;;;;;1.74;96.44;100935.58;1540650;92;26139;-53
2024/02/14 06:40:48;;;;;;;32.15;16.93;;;;;;;1.79;96.55;100931.69;1569801;91;27789;-55
2024/02/14 06:43:16;;;;;;;37.48;18.00;;;;;;;1.83;96.43;100932.02;1542158;92;25753;-53
2024/02/14 06:45:44;;;;;;;37.88;16.40;;;;;;;1.88;96.55;100933.99;1571212;91;28428;-53
2024/02/14 06:48:12;;;;;;;31.15;15.28;;;;;;;1.90;96.67;100930.03;1542017;93;26032;-52
2024/02/14 06:50:40;;;;;;;30.82;15.98;;;;;;;1.97;96.88;100933.38;1571229;91;25491;-54
2024/02/14 06:53:08;;;;;;;32.78;16.37;;;;;;;2.01;97.12;100932.37;1542064;93;25974;-52
2024/02/14 06:55:36;;;;;;;34.55;17.10;;;;;;;2.08;97.32;100926.41;1568633;89;25496;-53
2024/02/14 06:58:04;;;;;;;34.00;16.48;;;;;;;2.13;97.38;100933.17;1592676;83;27257;-54
2024/02/14 07:00:32;;;;;;;31.23;15.60;;;;;;;2.18;97.53;100935.95;1713035;82;25489;-51
2024/02/14 07:03:01;;;;;;;29.90;15.60;;;;;;;2.27;98.28;100930.23;1775435;80;25451;-52
2024/02/14 07:05:29;;;;;;;29.15;15.38;;;;;;;2.39;98.63;100935.00;1775316;80;25516;-53
2024/02/14 07:07:57;;;;;;;30.17;16.15;;;;;;;2.48;98.30;100935.42;1775340;80;25716;-54
2024/02/14 07:10:24;;;;;;;33.35;18.37;;;;;;;2.57;98.43;100937.48;1775308;80;27330;-56
2024/02/14 07:12:50;;;;;;;31.15;14.98;;;;;;;2.69;99.08;100943.27;1775188;80;25822;-54
2024/02/14 07:15:19;;;;;;;30.27;15.78;;;;;;;2.77;98.74;100947.69;1775332;80;25556;-55
2024/02/14 07:17:48;;;;;;;34.70;15.32;;;;;;;2.89;99.08;100945.49;1775307;80;26038;-54
2024/02/14 07:20:18;;;;;;;34.13;14.83;;;;;;;2.97;98.76;100938.42;1775323;80;25294;-52
2024/02/14 07:22:47;;;;;;;28.90;14.00;;;;;;;3.04;98.42;100940.94;1775434;80;33198;-53
2024/02/14 07:25:15;;;;;;;30.15;14.73;;;;;;;3.13;98.51;100944.30;1775369;80;25370;-55
2024/02/14 07:27:42;;;;;;;34.63;14.28;;;;;;;3.21;98.12;100937.73;1775307;80;25598;-54
2024/02/14 07:30:12;;;;;;;30.72;15.80;;;;;;;3.32;98.29;100938.69;1775284;80;25555;-53
2024/02/14 07:32:40;;;;;;;32.20;18.25;;;;;;;3.49;99.18;100935.48;1775370;80;25646;-54
2024/02/14 07:35:09;;;;;;;27.45;16.02;;;;;;;3.71;99.21;100939.53;1775472;80;27228;-53
2024/02/14 07:37:38;;;;;;;27.27;15.23;;;;;;;3.97;99.82;100943.88;1775197;80;25722;-52
2024/02/14 07:40:08;;;;;;;44.63;39.90;;;;;;;4.27;100.00;100946.63;1775306;80;25380;-53
2024/02/14 07:42:35;;;;;;;25.00;14.58;;;;;;;4.44;98.63;100945.20;1775297;80;25613;-55
2024/02/14 07:45:03;;;;;;;27.95;14.63;;;;;;;4.74;98.92;100947.93;1779318;80;25683;-55
2024/02/14 07:47:31;;;;;;;24.98;15.28;;;;;;;5.18;100.00;100945.89;1775255;80;27648;-53
2024/02/14 07:49:59;;;;;;;32.13;15.98;;;;;;;5.60;100.00;100945.63;1775165;80;25634;-53
2024/02/14 07:52:26;;;;;;;26.90;13.88;;;;;;;5.92;98.89;100945.52;1775213;80;25574;-53
2024/02/14 07:54:56;;;;;;;29.98;17.90;;;;;;;6.27;97.23;100945.98;1772763;80;25615;-52
2024/02/14 07:57:25;;;;;;;28.98;16.73;;;;;;;6.69;99.12;100951.19;1765261;81;25564;-54
2024/02/14 07:59:53;;;;;;;29.20;16.10;;;;;;;7.26;98.60;100949.31;1765153;81;27326;-54
2024/02/14 08:02:22;;;;;;;22.75;14.40;;;;;;;7.70;96.50;100945.22;1766131;81;25620;-54
2024/02/14 08:04:53;;;;;;;25.85;14.10;;;;;;;7.90;92.85;100951.60;1770546;81;25554;-53
2024/02/14 08:07:21;;;;;;;24.02;14.25;;;;;;;8.02;90.50;100948.87;1770388;81;25673;-56
2024/02/14 08:09:47;;;;;;;26.12;13.98;;;;;;;8.30;91.79;100956.58;1770455;81;25453;-54
2024/02/14 08:12:14;;;;;;;20.70;13.95;;;;;;;8.65;91.79;100953.43;1770443;80;27669;-55
2024/02/14 08:14:42;;;;;;;23.60;12.15;;;;;;;9.07;91.90;100950.70;1770278;80;25549;-55
2024/02/14 08:17:08;;;;;;;19.80;13.62;;;;;;;9.42;87.74;100954.19;1770359;80;25434;-51
2024/02/14 08:19:37;;;;;;;24.00;13.30;;;;;;;9.79;88.56;100955.41;1770276;81;25940;-53
2024/02/14 08:22:05;;;;;;;24.52;12.10;;;;;;;10.40;89.84;100949.30;1770386;81;25472;-54
2024/02/14 08:24:34;;;;;;;25.45;13.35;;;;;;;10.95;86.50;100954.17;1770428;81;27678;-54
2024/02/14 08:27:09;;;;;;;20.68;11.68;;;;;;;11.31;85.15;100954.13;1770243;81;25782;-52
2024/02/14 08:29:34;;;;;;;26.40;12.28;;;;;;;11.86;84.69;100950.67;1769481;81;25567;-51
2024/02/14 08:32:03;;;;;;;20.65;11.80;;;;;;;12.32;83.23;100945.13;1770255;81;25622;-55
2024/02/14 08:34:30;;;;;;;34.73;21.20;;;;;;;12.72;80.50;100947.25;1770511;81;32739;-53
2024/02/14 08:36:59;;;;;;;15.65;8.58;;;;;;;12.83;75.23;100954.02;1770316;81;27232;-49
2024/02/14 08:39:26;;;;;;;16.67;9.35;;;;;;;12.66;73.98;100952.53;1770234;81;25494;-49
2024/02/14 08:41:55;;;;;;;17.85;9.20;;;;;;;12.66;72.57;100952.53;1770260;81;25531;-52
2024/02/14 08:44:23;;;;;;;16.45;10.03;;;;;;;12.80;74.68;100948.41;1770221;81;25621;-51
2024/02/14 08:46:49;;;;;;;58.28;53.50;;;;;;;13.25;74.02;100954.63;1770291;81;25386;-51
2024/02/14 08:49:17;;;;;;;14.90;8.40;;;;;;;13.53;72.10;100951.77;1770300;80;28349;-54
2024/02/14 08:51:46;;;;;;;79.72;73.67;;;;;;;13.81;71.95;100950.22;1770192;81;25560;-52
2024/02/14 08:54:15;;;;;;;13.68;7.78;;;;;;;13.94;68.62;100956.07;1770508;81;25540;-51
2024/02/14 08:56:44;;;;;;;11.12;6.85;;;;;;;13.92;68.10;100956.95;1732957;80;25604;-49
2024/02/14 08:59:12;;;;;;;74.67;69.35;;;;;;;13.95;66.83;100949.53;1733668;82;26019;-49
2024/02/14 09:01:40;;;;;;;;;;;;;;;13.94;66.48;100943.84;1735186;81;27297;-49
2024/02/14 09:04:07;;;;;;;76.97;71.85;;;;;;;14.22;67.25;100955.84;1732447;82;26070;-50
2024/02/14 09:06:34;;;;;;;77.17;71.70;;;;;;;14.35;64.95;100943.20;1732862;81;25654;-51
2024/02/14 09:09:03;;;;;;;78.78;73.00;;;;;;;14.51;64.21;100947.06;1732812;82;25672;-50
2024/02/14 09:11:31;;;;;;;77.05;72.00;;;;;;;14.68;63.10;100945.52;1732788;82;25746;-52
2024/02/14 09:14:04;;;;;;;73.92;69.03;;;;;;;14.73;61.70;100945.35;1733113;82;27702;-50
2024/02/14 09:16:28;;;;;;;73.65;68.75;;;;;;;14.70;61.12;100947.34;1732954;81;25666;-52
2024/02/14 09:18:56;;;;;;;74.62;69.85;;;;;;;14.58;58.62;100949.31;1732934;82;26005;-51
2024/02/14 09:21:23;;;;;;;72.42;67.72;;;;;;;14.27;57.79;100946.70;1732630;82;25731;-51
2024/02/14 09:23:50;;;;;;;76.15;70.52;;;;;;;14.12;56.56;100949.34;1732503;82;25612;-49
2024/02/14 09:26:18;;;;;;;72.87;67.90;;;;;;;14.01;55.37;100953.72;1732544;82;27667;-51
2024/02/14 09:28:45;;;;;;;93.22;85.45;;;;;;;13.69;56.77;100941.83;1733996;82;25608;-55
2024/02/14 09:31:20;;;;;;;78.57;72.95;;;;;;;13.47;56.63;100941.34;1734022;81;25607;-52
2024/02/14 09:33:56;;;;;;;76.85;71.53;;;;;;;13.48;57.22;100941.59;1734032;81;26266;-50
2024/02/14 09:36:20;;;;;;;74.17;69.10;;;;;;;13.52;57.90;100933.87;1734253;81;25634;-50
2024/02/14 09:38:48;;;;;;;73.03;68.23;;;;;;;13.65;59.72;100925.35;1734231;81;27199;-50
2024/02/14 09:41:40;;;;;;;72.47;67.67;;;;;;;13.98;59.02;100930.44;1733817;81;25490;-52
2024/02/14 09:44:08;;;;;;;72.25;67.65;;;;;;;14.41;60.10;100923.45;1733986;81;25630;-51
2024/02/14 09:46:37;;;;;;;74.45;69.50;;;;;;;14.73;59.27;100926.29;1733881;82;26389;-50
2024/02/14 09:49:07;;;;;;;72.58;67.62;;;;;;;15.03;56.49;100931.84;1734056;82;32324;-51
2024/02/14 09:51:35;;;;;;;72.55;67.85;;;;;;;14.96;54.78;100935.63;1733924;82;27317;-50
2024/02/14 09:54:03;;;;;;;75.12;70.15;;;;;;;14.61;52.27;100936.46;1733799;82;25724;-51
2024/02/14 09:56:32;;;;;;;71.50;66.47;;;;;;;13.51;53.60;100777.91;1733338;80;25507;-52
2024/02/14 09:59:03;;;;;;;74.65;69.80;;;;;;;14.36;52.73;100932.00;1732839;82;25643;-50
2024/02/14 10:01:30;;;;;;;72.82;67.92;;;;;;;14.27;54.86;100926.30;1712310;82;25419;-50
2024/02/14 10:04:00;;;;;;;72.62;68.02;;;;;;;14.66;54.09;100932.22;1732858;82;27838;-50
2024/02/14 10:06:28;;;;;;;72.67;67.78;;;;;;;14.66;55.43;100932.22;1732806;82;25601;-50
2024/02/14 10:08:56;;;;;;;73.37;68.33;;;;;;;14.95;55.47;100934.84;1732296;82;25487;-50
2024/02/14 10:11:27;;;;;;;72.90;68.35;;;;;;;15.26;54.46;100926.42;1732943;82;25681;-49
2024/02/14 10:13:54;;;;;;;70.00;65.37;;;;;;;15.55;55.30;100924.09;1733170;82;25469;-51
2024/02/14 10:16:22;;;;;;;72.97;68.25;;;;;;;16.14;54.24;100910.48;1732825;82;27295;-51
2024/02/14 10:18:50;;;;;;;69.17;64.60;;;;;;;16.39;49.00;100925.63;1732779;82;25636;-52
2024/02/14 10:21:19;;;;;;;69.60;65.32;;;;;;;15.98;49.55;100925.26;1732504;82;30169;-50
2024/02/14 10:23:47;;;;;;;77.32;72.03;;;;;;;15.83;49.92;100929.91;1732977;82;25634;-55
2024/02/14 10:26:16;;;;;;;83.22;77.12;;;;;;;15.97;49.65;100918.77;1733456;82;25474;-57
2024/02/14 10:28:51;;;;;;;71.95;67.50;;;;;;;15.97;49.13;100922.31;1733575;82;28282;-56
2024/02/14 10:31:21;;;;;;;67.97;63.68;;;;;;;15.85;49.99;100927.66;1732880;82;25604;-57
2024/02/14 10:33:49;;;;;;;66.97;62.70;;;;;;;15.86;47.65;100925.96;1733106;82;25612;-56
2024/02/14 10:36:20;;;;;;;65.67;61.73;;;;;;;15.91;49.97;100926.34;1733079;82;25643;-54
2024/02/14 10:38:50;;;;;;;66.22;62.20;;;;;;;16.22;49.51;100914.27;1732986;82;25600;-51
2024/02/14 10:41:19;;;;;;;9.30;5.50;;;;;;;15.69;47.88;100924.66;1732901;82;28047;-52
2024/02/14 10:43:45;;;;;;;8.58;3.25;;;;;;;16.03;49.31;100931.09;1732824;82;25477;-53
2024/02/14 10:46:25;;;;;;;7.62;3.15;;;;;;;16.61;48.57;100927.23;1732876;82;25443;-51
2024/02/14 10:48:58;;;;;;;6.40;2.83;;;;;;;16.16;47.22;100925.17;1732881;82;25712;-51
2024/02/14 10:51:31;;;;;;;7.70;2.92;;;;;;;15.71;47.42;100916.16;1732969;82;25399;-53
2024/02/14 10:54:01;;;;;;;6.25;3.20;;;;;;;15.83;48.78;100914.91;1732620;82;27341;-51
2024/02/14 10:56:30;;;;;;;5.97;3.30;;;;;;;15.85;46.20;100912.11;1722263;82;25739;-51
2024/02/14 10:59:01;;;;;;;;;;;;;;;15.79;46.37;100918.87;1711022;83;25592;-50
2024/02/14 11:01:32;;;;;;;10.28;3.15;;;;;;;15.51;45.67;100917.14;1708395;83;25626;-51
2024/02/14 11:04:04;;;;;;;6.05;2.90;;;;;;;14.95;44.97;100919.86;1732969;82;25633;-50
2024/02/14 11:06:31;;;;;;;7.08;3.58;;;;;;;14.05;45.65;100913.66;1739476;82;27314;-49
2024/02/14 11:09:10;;;;;;;7.58;3.80;;;;;;;13.56;46.60;100912.30;1739339;82;25636;-50
2024/02/14 11:11:37;;;;;;;73.17;68.05;;;;;;;13.57;47.25;100905.19;1739333;81;25565;-50
2024/02/14 11:14:03;;;;;;;6.33;3.22;;;;;;;13.61;47.66;100895.28;1743366;82;25563;-50
2024/02/14 11:16:33;;;;;;;6.80;2.67;;;;;;;13.66;47.16;100900.35;1744470;81;25571;-50
2024/02/14 11:19:11;;;;;;;6.45;3.02;;;;;;;13.40;47.39;100905.09;1744450;82;27907;-51
2024/02/14 11:21:45;;;;;;;4.58;3.05;;;;;;;13.14;47.12;100904.38;1744406;82;25661;-53
2024/02/14 11:24:14;;;;;;;20.97;10.88;;;;;;;12.81;48.09;100899.23;1744700;82;25458;-54
2024/02/14 11:26:54;;;;;;;12.80;6.65;;;;;;;12.77;48.99;100894.73;1744742;82;25980;-53
2024/02/14 11:29:25;;;;;;;5.72;3.67;;;;;;;13.19;50.40;100896.10;1744678;82;25398;-51
2024/02/14 11:32:02;;;;;;;7.35;3.02;;;;;;;13.81;50.24;100882.24;1744625;82;27345;-51
2024/02/14 11:34:31;;;;;;;4.83;2.75;;;;;;;14.39;49.16;100889.75;1744491;82;25631;-52
2024/02/14 11:36:57;;;;;;;4.92;2.80;;;;;;;14.39;47.34;100889.19;1744556;82;25401;-50
2024/02/14 11:39:24;;;;;;;6.80;3.08;;;;;;;14.26;47.76;100889.34;1744574;82;26572;-53
2024/02/14 11:41:50;;;;;;;6.12;2.72;;;;;;;14.38;46.82;100892.22;1744654;81;25382;-53
2024/02/14 11:44:21;;;;;;;4.75;3.12;;;;;;;14.29;46.60;100881.91;1744588;82;27661;-51
2024/02/14 11:46:48;;;;;;;7.78;2.67;;;;;;;14.37;46.79;100881.12;1744607;82;25595;-52
2024/02/14 11:49:16;;;;;;;4.42;2.58;;;;;;;14.53;48.28;100875.98;1744618;81;25555;-54
2024/02/14 11:51:43;;;;;;;5.67;2.45;;;;;;;14.85;47.80;100880.13;1723831;82;26619;-50
2024/02/14 11:54:11;;;;;;;5.60;2.70;;;;;;;14.85;47.01;100880.13;1744564;82;25462;-51
2024/02/14 11:56:39;;;;;;;4.42;2.33;;;;;;;15.00;47.12;100882.91;1756540;80;28021;-51
2024/02/14 11:59:09;;;;;;;5.50;2.33;;;;;;;14.98;47.06;100876.97;1780564;80;25473;-52
2024/02/14 12:01:38;;;;;;;5.72;2.65;;;;;;;15.22;47.32;100878.34;1780683;80;25617;-55
2024/02/14 12:04:08;;;;;;;5.78;2.55;;;;;;;15.21;46.29;100884.36;1780626;80;25614;-52
2024/02/14 12:06:36;;;;;;;9.15;2.70;;;;;;;15.27;46.03;100882.25;1780558;80;25389;-53
2024/02/14 12:09:05;;;;;;;4.05;2.27;;;;;;;15.20;46.02;100881.39;1780388;80;26855;-53
2024/02/14 12:11:37;;;;;;;3.87;2.47;;;;;;;15.26;44.56;100882.03;1780388;80;25396;-51
2024/02/14 12:14:08;;;;;;;7.35;3.12;;;;;;;15.32;45.81;100880.70;1780517;80;25598;-51
2024/02/14 12:16:37;;;;;;;6.87;2.37;;;;;;;15.38;45.95;100879.98;1780491;80;25628;-50
2024/02/14 12:19:10;;;;;;;9.25;2.90;;;;;;;15.56;45.32;100874.70;1780656;80;25468;-53
2024/02/14 12:21:39;;;;;;;4.90;2.17;;;;;;;15.57;45.23;100880.37;1776167;80;27319;-53
2024/02/14 12:24:17;;;;;;;4.55;2.15;;;;;;;15.31;42.80;100869.59;1780686;80;33711;-51
2024/02/14 12:26:42;;;;;;;5.97;2.70;;;;;;;15.27;43.99;100872.71;1779312;80;25607;-55
2024/02/14 12:29:15;;;;;;;3.63;2.43;;;;;;;15.20;43.26;100878.66;1780765;80;26273;-51
2024/02/14 12:31:43;;;;;;;5.55;2.35;;;;;;;15.10;44.62;100871.67;1780587;80;25444;-56
2024/02/14 12:34:12;;;;;;;5.20;2.85;;;;;;;15.05;44.36;100873.20;1780497;80;27964;-55
2024/02/14 12:36:39;;;;;;;4.95;2.92;;;;;;;15.06;44.26;100873.99;1780557;80;25622;-51
2024/02/14 12:39:09;;;;;;;5.62;2.80;;;;;;;15.21;45.44;100868.02;1780533;80;25592;-54